createdAt,value
2017-10-23T00:01:05.164Z,80.09
2017-10-23T00:03:32.731Z,79.98
2017-10-23T00:06:00.265Z,79.73
2017-10-23T00:08:27.803Z,79.55
2017-10-23T00:10:55.372Z,80.26
2017-10-23T00:13:22.945Z,80.33
2017-10-23T00:15:50.527Z,79.71
2017-10-23T00:18:18.069Z,79.62
2017-10-23T00:20:45.604Z,80.74
2017-10-23T00:23:13.142Z,79.76
2017-10-23T00:25:40.709Z,79.40
2017-10-23T00:28:08.325Z,79.45
2017-10-23T00:30:35.856Z,79.87
2017-10-23T00:33:03.426Z,79.31
2017-10-23T00:35:30.993Z,79.56
2017-10-23T00:37:58.541Z,79.72
2017-10-23T00:40:26.084Z,79.56
2017-10-23T00:42:53.641Z,79.55
2017-10-23T00:45:21.185Z,79.20
2017-10-23T00:47:48.754Z,79.27
2017-10-23T00:50:16.283Z,79.06
2017-10-23T00:52:43.854Z,78.90
2017-10-23T00:55:11.450Z,78.64
2017-10-23T00:57:38.999Z,79.19
2017-10-23T01:00:06.688Z,78.86
2017-10-23T01:02:34.252Z,79.20
2017-10-23T01:05:01.804Z,78.69
2017-10-23T01:07:29.354Z,78.73
2017-10-23T01:09:56.957Z,78.82
2017-10-23T01:12:24.538Z,79.01
2017-10-23T01:14:52.074Z,79.35
2017-10-23T01:17:19.631Z,79.29
2017-10-23T01:19:47.196Z,79.40
2017-10-23T01:22:14.743Z,79.65
2017-10-23T01:24:42.285Z,79.76
2017-10-23T01:27:09.861Z,79.96
2017-10-23T01:29:37.425Z,79.30
2017-10-23T01:32:04.962Z,79.86
2017-10-23T01:34:32.518Z,79.60
2017-10-23T01:37:00.085Z,80.21
2017-10-23T01:39:27.639Z,80.67
2017-10-23T01:41:55.193Z,80.21
2017-10-23T01:44:22.729Z,79.60
2017-10-23T01:46:50.291Z,79.72
2017-10-23T01:49:17.839Z,79.28
2017-10-23T01:51:45.361Z,80.04
2017-10-23T01:54:12.924Z,80.18
2017-10-23T01:56:40.487Z,79.18
2017-10-23T01:59:08.022Z,79.85
2017-10-23T02:01:35.976Z,79.00
2017-10-23T02:04:04.025Z,79.12
2017-10-23T02:06:31.955Z,78.62
2017-10-23T02:08:59.504Z,78.14
2017-10-23T02:11:27.151Z,78.21
2017-10-23T02:13:54.712Z,78.63
2017-10-23T02:16:23.108Z,78.64
2017-10-23T02:18:50.648Z,79.26
2017-10-23T02:21:18.194Z,79.16
2017-10-23T02:23:45.723Z,79.51
2017-10-23T02:26:13.249Z,79.21
2017-10-23T02:28:40.808Z,78.80
2017-10-23T02:31:08.477Z,79.05
2017-10-23T02:33:36.029Z,79.55
2017-10-23T02:36:03.884Z,79.59
2017-10-23T02:38:31.502Z,79.39
2017-10-23T02:40:59.040Z,79.36
2017-10-23T02:43:26.710Z,79.52
2017-10-23T02:45:54.275Z,79.85
2017-10-23T02:48:21.871Z,79.58
2017-10-23T02:50:49.433Z,79.82
2017-10-23T02:53:17.552Z,80.21
2017-10-23T02:55:45.092Z,79.95
2017-10-23T02:58:12.656Z,80.58
2017-10-23T03:00:40.224Z,80.02
2017-10-23T03:03:07.764Z,80.37
2017-10-23T03:05:35.303Z,80.45
2017-10-23T03:08:02.875Z,81.90
2017-10-23T03:10:30.447Z,84.21
2017-10-23T03:12:58.077Z,84.62
2017-10-23T03:15:25.747Z,86.14
2017-10-23T03:17:53.299Z,86.34
2017-10-23T03:20:20.838Z,87.53
2017-10-23T03:22:48.407Z,88.17
2017-10-23T03:25:15.941Z,88.41
2017-10-23T03:27:43.530Z,89.04
2017-10-23T03:30:11.250Z,88.71
2017-10-23T03:32:38.791Z,89.26
2017-10-23T03:35:06.360Z,88.73
2017-10-23T03:37:33.968Z,88.73
2017-10-23T03:40:01.529Z,88.36
2017-10-23T03:42:29.115Z,89.03
2017-10-23T03:44:56.665Z,88.99
2017-10-23T03:47:24.207Z,89.41
2017-10-23T03:49:51.760Z,89.42
2017-10-23T03:52:19.452Z,89.51
2017-10-23T03:54:47.065Z,89.23
2017-10-23T03:57:14.637Z,89.83
2017-10-23T03:59:42.187Z,88.74
2017-10-23T04:02:09.744Z,89.74
2017-10-23T04:04:37.311Z,89.99
2017-10-23T04:07:04.931Z,89.34
2017-10-23T04:09:32.513Z,89.78
2017-10-23T04:12:00.088Z,89.56
2017-10-23T04:14:27.891Z,90.38
2017-10-23T04:16:55.496Z,90.56
2017-10-23T04:19:23.071Z,90.70
2017-10-23T04:21:50.636Z,90.62
2017-10-23T04:24:18.253Z,90.62
2017-10-23T04:26:45.845Z,90.34
2017-10-23T04:29:13.404Z,89.80
2017-10-23T04:31:40.995Z,89.95
2017-10-23T04:34:08.550Z,90.66
2017-10-23T04:36:36.115Z,90.24
2017-10-23T04:39:03.747Z,89.65
2017-10-23T04:41:31.423Z,90.01
2017-10-23T04:43:58.969Z,89.71
2017-10-23T04:46:26.530Z,89.07
2017-10-23T04:48:54.109Z,88.42
2017-10-23T04:51:21.666Z,87.91
2017-10-23T04:53:49.206Z,88.01
2017-10-23T04:56:16.752Z,87.85
2017-10-23T04:58:44.293Z,88.87
2017-10-23T05:01:11.832Z,88.35
2017-10-23T05:03:39.393Z,87.41
2017-10-23T05:06:06.929Z,87.06
2017-10-23T05:08:34.501Z,86.63
2017-10-23T05:11:02.068Z,88.08
2017-10-23T05:13:29.686Z,88.09
2017-10-23T05:15:57.234Z,89.14
2017-10-23T05:18:24.772Z,88.96
2017-10-23T05:20:52.384Z,89.58
2017-10-23T05:23:19.950Z,89.99
2017-10-23T05:25:47.496Z,90.33
2017-10-23T05:28:15.229Z,90.24
2017-10-23T05:30:42.785Z,90.35
2017-10-23T05:33:10.438Z,90.22
2017-10-23T05:35:38.634Z,90.00
2017-10-23T05:38:06.213Z,89.83
2017-10-23T05:40:33.778Z,90.07
2017-10-23T05:43:01.469Z,89.82
2017-10-23T05:45:29.541Z,89.31
2017-10-23T05:47:57.117Z,89.40
2017-10-23T05:50:24.677Z,88.52
2017-10-23T05:52:52.227Z,88.88
2017-10-23T05:55:19.750Z,89.51
2017-10-23T06:00:20.946Z,89.92
2017-10-23T06:02:48.544Z,89.35
2017-10-23T06:05:16.109Z,89.51
2017-10-23T06:07:44.244Z,89.14
2017-10-23T06:10:11.845Z,89.18
2017-10-23T06:12:40.045Z,89.40
2017-10-23T06:15:07.707Z,88.25
2017-10-23T06:17:35.299Z,88.51
2017-10-23T06:20:02.878Z,88.57
2017-10-23T06:22:30.444Z,89.14
2017-10-23T06:24:58.011Z,89.25
2017-10-23T06:27:25.568Z,88.68
2017-10-23T06:29:53.110Z,89.29
2017-10-23T06:32:20.670Z,90.02
2017-10-23T06:34:48.249Z,89.68
2017-10-23T06:37:15.777Z,89.01
2017-10-23T06:39:43.469Z,89.41
2017-10-23T06:42:11.014Z,89.48
2017-10-23T06:44:38.978Z,90.08
2017-10-23T06:47:07.454Z,89.77
2017-10-23T06:49:35.009Z,89.89
2017-10-23T06:52:02.535Z,89.77
2017-10-23T06:54:30.117Z,89.62
2017-10-23T06:56:57.657Z,89.98
2017-10-23T06:59:25.208Z,90.42
2017-10-23T07:01:52.786Z,89.27
2017-10-23T07:04:20.336Z,89.78
2017-10-23T07:06:47.870Z,89.75
2017-10-23T07:09:15.460Z,89.58
2017-10-23T07:11:42.988Z,90.28
2017-10-23T07:14:10.625Z,91.01
2017-10-23T07:16:38.172Z,90.85
2017-10-23T07:19:05.871Z,90.57
2017-10-23T07:21:33.396Z,90.13
2017-10-23T07:24:00.939Z,90.92
2017-10-23T07:26:28.474Z,90.63
2017-10-23T07:28:56.023Z,90.45
2017-10-23T07:31:23.921Z,90.48
2017-10-23T07:33:51.450Z,90.76
2017-10-23T07:36:19.144Z,90.70
2017-10-23T07:38:46.660Z,90.71
2017-10-23T07:41:14.230Z,91.36
2017-10-23T07:43:41.763Z,92.23
2017-10-23T07:46:09.349Z,91.21
2017-10-23T07:48:36.884Z,92.47
2017-10-23T07:51:04.433Z,92.24
2017-10-23T07:53:31.955Z,91.32
2017-10-23T07:55:59.483Z,90.75
2017-10-23T07:58:27.178Z,91.53
2017-10-23T08:00:54.714Z,91.08
2017-10-23T08:03:22.313Z,91.35
2017-10-23T08:05:49.837Z,90.94
2017-10-23T08:08:17.359Z,91.67
2017-10-23T08:10:44.879Z,91.78
2017-10-23T08:13:12.431Z,91.64
2017-10-23T08:15:40.509Z,91.45
2017-10-23T08:18:08.040Z,92.22
2017-10-23T08:20:35.602Z,93.15
2017-10-23T08:23:03.136Z,92.15
2017-10-23T08:25:30.649Z,92.65
2017-10-23T08:27:58.174Z,92.18
2017-10-23T08:30:25.754Z,92.63
2017-10-23T08:32:53.273Z,93.36
2017-10-23T08:35:20.788Z,91.12
2017-10-23T08:37:48.338Z,92.29
2017-10-23T08:40:15.847Z,92.21
2017-10-23T08:42:43.359Z,90.62
2017-10-23T08:45:10.900Z,91.26
2017-10-23T08:47:38.415Z,90.06
2017-10-23T08:50:05.936Z,91.13
2017-10-23T08:52:33.464Z,90.43
2017-10-23T08:55:01.010Z,89.46
2017-10-23T08:57:28.946Z,88.57
2017-10-23T08:59:56.465Z,88.39
2017-10-23T09:02:24.009Z,88.00
2017-10-23T09:04:51.530Z,87.90
2017-10-23T09:07:19.205Z,88.24
2017-10-23T09:09:46.755Z,85.78
2017-10-23T09:12:14.272Z,86.19
2017-10-23T09:14:41.809Z,84.74
2017-10-23T09:17:09.644Z,84.86
2017-10-23T09:19:37.182Z,83.57
2017-10-23T09:22:04.708Z,84.44
2017-10-23T09:24:32.247Z,83.70
2017-10-23T09:26:59.784Z,83.11
2017-10-23T09:29:27.326Z,82.56
2017-10-23T09:31:54.870Z,82.32
2017-10-23T09:34:22.412Z,83.61
2017-10-23T09:36:49.955Z,82.27
2017-10-23T09:39:17.639Z,81.24
2017-10-23T09:41:45.153Z,83.01
2017-10-23T09:44:12.666Z,80.62
2017-10-23T09:46:40.222Z,81.97
2017-10-23T09:49:07.870Z,78.76
2017-10-23T09:51:35.394Z,80.14
2017-10-23T09:54:03.089Z,78.34
2017-10-23T09:56:31.030Z,78.70
2017-10-23T09:58:58.597Z,77.32
2017-10-23T10:01:26.248Z,78.70
2017-10-23T10:03:53.810Z,77.95
2017-10-23T10:06:21.451Z,76.50
2017-10-23T10:08:49.016Z,75.50
2017-10-23T10:11:17.225Z,77.35
2017-10-23T10:13:45.104Z,78.00
2017-10-23T10:16:13.195Z,76.84
2017-10-23T10:18:41.236Z,75.92
2017-10-23T10:21:08.869Z,76.17
2017-10-23T10:23:36.584Z,75.86
2017-10-23T10:26:04.190Z,76.01
2017-10-23T10:28:31.783Z,75.71
2017-10-23T10:30:59.332Z,75.17
2017-10-23T10:33:26.876Z,74.92
2017-10-23T10:35:54.433Z,73.98
2017-10-23T10:38:21.980Z,74.14
2017-10-23T10:40:50.154Z,72.95
2017-10-23T10:43:17.702Z,74.12
2017-10-23T10:45:45.943Z,73.56
2017-10-23T10:48:13.523Z,73.44
2017-10-23T10:50:41.084Z,73.63
2017-10-23T10:53:08.634Z,75.07
2017-10-23T10:55:36.168Z,73.91
2017-10-23T10:58:03.755Z,74.05
2017-10-23T11:00:31.840Z,74.21
2017-10-23T11:02:59.394Z,73.85
2017-10-23T11:05:28.016Z,72.76
2017-10-23T11:07:55.548Z,72.59
2017-10-23T11:10:23.089Z,74.20
2017-10-23T11:12:50.668Z,71.79
2017-10-23T11:15:18.309Z,71.43
2017-10-23T11:17:45.867Z,71.66
2017-10-23T11:20:13.466Z,71.78
2017-10-23T11:22:41.015Z,71.29
2017-10-23T11:25:08.753Z,71.42
2017-10-23T11:27:36.393Z,70.39
2017-10-23T11:30:03.934Z,70.87
2017-10-23T11:32:31.493Z,70.23
2017-10-23T11:34:59.021Z,72.10
2017-10-23T11:37:26.580Z,71.22
2017-10-23T11:39:54.141Z,70.64
2017-10-23T11:42:21.669Z,70.98
2017-10-23T11:44:49.197Z,69.83
2017-10-23T11:47:16.822Z,69.94
2017-10-23T11:49:44.374Z,68.82
2017-10-23T11:52:11.914Z,69.14
2017-10-23T11:54:39.489Z,69.11
2017-10-23T11:57:07.033Z,69.48
2017-10-23T11:59:34.584Z,69.35
2017-10-23T12:02:02.145Z,69.48
2017-10-23T12:04:29.685Z,68.47
2017-10-23T12:06:57.262Z,70.23
2017-10-23T12:09:24.866Z,70.16
2017-10-23T12:14:26.349Z,72.43
2017-10-23T12:16:53.901Z,70.13
2017-10-23T12:19:21.472Z,69.50
2017-10-23T12:21:49.040Z,69.41
2017-10-23T12:24:16.587Z,68.66
2017-10-23T12:26:44.118Z,69.35
2017-10-23T12:29:11.686Z,69.25
2017-10-23T12:31:39.221Z,69.50
2017-10-23T12:34:06.766Z,68.52
2017-10-23T12:36:34.322Z,68.15
2017-10-23T12:39:01.864Z,67.71
2017-10-23T12:41:29.404Z,69.33
2017-10-23T12:43:56.945Z,68.82
2017-10-23T12:46:24.538Z,67.74
2017-10-23T12:48:52.073Z,68.31
2017-10-23T12:51:19.625Z,67.89
2017-10-23T12:53:47.153Z,68.14
2017-10-23T12:56:14.701Z,67.02
2017-10-23T12:58:42.246Z,66.56
2017-10-23T13:01:09.785Z,66.73
2017-10-23T13:03:37.391Z,67.30
2017-10-23T13:06:04.917Z,66.40
2017-10-23T13:08:32.442Z,64.58
2017-10-23T13:11:00.025Z,63.93
2017-10-23T13:13:27.642Z,65.04
2017-10-23T13:15:55.204Z,65.83
2017-10-23T13:18:23.264Z,65.43
2017-10-23T13:20:50.785Z,64.73
2017-10-23T13:23:18.336Z,65.32
2017-10-23T13:25:45.901Z,65.46
2017-10-23T13:28:13.467Z,65.71
2017-10-23T13:30:40.995Z,65.80
2017-10-23T13:33:08.722Z,66.15
2017-10-23T13:35:36.298Z,66.87
2017-10-23T13:38:03.835Z,67.51
2017-10-23T13:40:31.396Z,67.71
2017-10-23T13:42:58.925Z,68.03
2017-10-23T13:45:26.707Z,68.87
2017-10-23T13:47:54.329Z,68.78
2017-10-23T13:50:21.881Z,69.22
2017-10-23T13:52:49.437Z,70.62
2017-10-23T13:55:16.992Z,70.92
2017-10-23T13:57:44.532Z,70.97
2017-10-23T14:00:12.062Z,70.33
2017-10-23T14:02:39.622Z,70.05
2017-10-23T14:05:07.164Z,71.12
2017-10-23T14:07:34.739Z,71.31
2017-10-23T14:10:02.367Z,71.32
2017-10-23T14:12:29.915Z,70.97
2017-10-23T14:14:57.478Z,71.31
2017-10-23T14:17:25.092Z,71.43
2017-10-23T14:19:52.790Z,71.01
2017-10-23T14:22:20.361Z,71.89
2017-10-23T14:24:47.930Z,71.35
2017-10-23T14:27:15.558Z,72.68
2017-10-23T14:29:43.301Z,71.94
2017-10-23T14:32:10.958Z,71.99
2017-10-23T14:34:38.528Z,72.84
2017-10-23T14:37:06.149Z,72.73
2017-10-23T14:39:33.732Z,72.57
2017-10-23T14:42:01.324Z,71.89
2017-10-23T14:44:28.960Z,72.27
2017-10-23T14:46:56.609Z,72.28
2017-10-23T14:49:24.263Z,71.31
2017-10-23T14:51:51.903Z,72.36
2017-10-23T14:54:19.567Z,72.12
2017-10-23T14:56:47.681Z,72.73
2017-10-23T14:59:15.323Z,74.39
2017-10-23T15:01:43.240Z,74.70
2017-10-23T15:04:10.808Z,77.91
2017-10-23T15:06:38.526Z,78.95
2017-10-23T15:09:06.316Z,79.50
2017-10-23T15:11:33.865Z,80.26
2017-10-23T15:14:01.449Z,80.57
2017-10-23T15:16:29.026Z,81.49
2017-10-23T15:18:56.586Z,81.43
2017-10-23T15:21:24.238Z,81.80
2017-10-23T15:23:51.787Z,83.04
2017-10-23T15:26:19.572Z,83.70
2017-10-23T15:28:47.529Z,82.93
2017-10-23T15:31:15.063Z,83.12
2017-10-23T15:33:42.609Z,82.27
2017-10-23T15:36:10.287Z,81.40
2017-10-23T15:38:37.816Z,81.06
2017-10-23T15:41:05.458Z,81.36
2017-10-23T15:43:33.074Z,82.21
2017-10-23T15:48:34.463Z,81.58
2017-10-23T15:51:02.025Z,80.92
2017-10-23T15:53:30.632Z,80.68
2017-10-23T15:55:58.231Z,80.63
2017-10-23T15:58:25.787Z,80.36
2017-10-23T16:00:53.338Z,79.46
2017-10-23T16:03:20.943Z,79.95
2017-10-23T16:05:48.438Z,79.94
2017-10-23T16:08:16.011Z,79.84
2017-10-23T16:10:43.583Z,80.40
2017-10-23T16:13:11.445Z,80.55
2017-10-23T16:15:40.387Z,79.31
2017-10-23T16:18:07.973Z,79.54
2017-10-23T16:20:35.512Z,79.95
2017-10-23T16:23:03.073Z,80.49
2017-10-23T16:25:30.706Z,80.81
2017-10-23T16:27:58.257Z,81.32
2017-10-23T16:30:25.864Z,80.99
2017-10-23T16:32:53.555Z,80.59
2017-10-23T16:35:21.125Z,79.78
2017-10-23T16:37:48.720Z,79.93
2017-10-23T16:40:16.323Z,80.10
2017-10-23T16:42:43.908Z,80.74
2017-10-23T16:45:11.837Z,80.34
2017-10-23T16:47:39.364Z,80.47
2017-10-23T16:50:06.974Z,80.27
2017-10-23T16:52:34.517Z,80.67
2017-10-23T16:55:02.076Z,80.43
2017-10-23T16:57:29.696Z,80.03
2017-10-23T16:59:57.249Z,80.87
2017-10-23T17:02:24.799Z,81.54
2017-10-23T17:04:52.397Z,82.07
2017-10-23T17:07:19.984Z,82.52
2017-10-23T17:09:47.528Z,83.54
2017-10-23T17:12:15.156Z,84.33
2017-10-23T17:14:42.757Z,84.38
2017-10-23T17:17:11.384Z,85.30
2017-10-23T17:19:39.029Z,85.67
2017-10-23T17:22:06.674Z,85.67
2017-10-23T17:24:34.249Z,84.87
2017-10-23T17:27:01.843Z,84.67
2017-10-23T17:29:29.398Z,84.69
2017-10-23T17:31:56.968Z,84.72
2017-10-23T17:34:24.548Z,83.95
2017-10-23T17:36:52.152Z,83.40
2017-10-23T17:39:19.807Z,83.06
2017-10-23T17:41:47.469Z,82.98
2017-10-23T17:44:15.040Z,83.44
2017-10-23T17:46:42.610Z,83.79
2017-10-23T17:49:10.686Z,82.98
2017-10-23T17:51:38.279Z,82.60
2017-10-23T17:54:06.141Z,82.63
2017-10-23T17:56:33.818Z,82.04
2017-10-23T17:59:01.373Z,81.47
2017-10-23T18:01:29.687Z,81.84
2017-10-23T18:03:57.422Z,81.93
2017-10-23T18:06:24.978Z,81.89
2017-10-23T18:08:52.745Z,81.98
2017-10-23T18:11:20.474Z,82.20
2017-10-23T18:13:48.076Z,82.10
2017-10-23T18:16:15.683Z,82.98
2017-10-23T18:18:43.251Z,83.54
2017-10-23T18:21:11.300Z,83.89
2017-10-23T18:23:44.473Z,83.55
2017-10-23T18:26:12.498Z,84.02
2017-10-23T18:28:40.061Z,83.86
2017-10-23T18:31:07.673Z,84.20
2017-10-23T18:33:35.292Z,83.08
2017-10-23T18:36:03.211Z,82.59
2017-10-23T18:38:30.763Z,82.18
2017-10-23T18:40:59.301Z,81.31
2017-10-23T18:43:26.943Z,81.44
2017-10-23T18:45:54.564Z,80.73
2017-10-23T18:48:22.201Z,80.64
2017-10-23T18:50:49.769Z,81.06
2017-10-23T18:53:17.330Z,81.49
2017-10-23T18:55:44.916Z,82.38
2017-10-23T18:58:12.477Z,83.73
2017-10-23T19:00:40.019Z,83.62
2017-10-23T19:03:07.648Z,83.69
2017-10-23T19:05:35.317Z,84.18
2017-10-23T19:08:02.875Z,83.81
2017-10-23T19:10:30.462Z,82.42
2017-10-23T19:12:58.031Z,82.56
2017-10-23T19:15:25.586Z,82.82
2017-10-23T19:17:53.181Z,84.21
2017-10-23T19:20:20.823Z,83.95
2017-10-23T19:22:48.630Z,84.58
2017-10-23T19:25:16.214Z,84.73
2017-10-23T19:27:43.805Z,84.74
2017-10-23T19:30:11.387Z,84.04
2017-10-23T19:32:38.974Z,83.89
2017-10-23T19:35:06.606Z,84.37
2017-10-23T19:37:34.167Z,84.28
2017-10-23T19:40:01.746Z,84.70
2017-10-23T19:42:29.288Z,84.53
2017-10-23T19:44:56.849Z,85.65
2017-10-23T19:47:24.483Z,85.49
2017-10-23T19:49:52.085Z,85.60
2017-10-23T19:52:19.661Z,85.98
2017-10-23T19:54:47.445Z,87.00
2017-10-23T19:57:14.995Z,86.87
2017-10-23T19:59:42.553Z,87.14
2017-10-23T20:02:10.421Z,86.80
2017-10-23T20:04:38.003Z,86.97
2017-10-23T20:07:05.667Z,87.92
2017-10-23T20:09:33.248Z,86.76
2017-10-23T20:12:00.815Z,86.54
2017-10-23T20:14:28.385Z,85.38
2017-10-23T20:16:55.935Z,86.08
2017-10-23T20:19:23.523Z,85.53
2017-10-23T20:21:51.094Z,85.06
2017-10-23T20:24:18.704Z,85.26
2017-10-23T20:26:46.289Z,85.12
2017-10-23T20:29:13.994Z,84.21
2017-10-23T20:31:41.551Z,84.52
2017-10-23T20:34:09.184Z,84.30
2017-10-23T20:36:37.754Z,84.08
2017-10-23T20:39:05.388Z,83.92
2017-10-23T20:41:32.987Z,83.93
2017-10-23T20:44:00.550Z,83.62
2017-10-23T20:46:28.111Z,82.66
2017-10-23T20:48:55.678Z,82.50
2017-10-23T20:51:23.414Z,81.99
2017-10-23T20:53:50.971Z,81.66
2017-10-23T20:56:18.565Z,82.17
2017-10-23T20:58:46.460Z,81.88
2017-10-23T21:01:14.050Z,81.68
2017-10-23T21:03:41.671Z,81.88
2017-10-23T21:06:09.235Z,81.23
2017-10-23T21:08:36.818Z,81.45
2017-10-23T21:11:04.519Z,81.39
2017-10-23T21:13:32.103Z,81.19
2017-10-23T21:15:59.689Z,80.93
2017-10-23T21:18:27.229Z,80.87
2017-10-23T21:20:54.809Z,80.71
2017-10-23T21:23:22.359Z,81.24
2017-10-23T21:25:49.908Z,81.84
2017-10-23T21:28:17.530Z,81.43
2017-10-23T21:30:45.111Z,81.46
2017-10-23T21:33:12.742Z,81.05
2017-10-23T21:35:40.340Z,81.45
2017-10-23T21:38:07.882Z,81.14
2017-10-23T21:40:35.447Z,80.97
2017-10-23T21:43:03.032Z,81.64
2017-10-23T21:45:30.644Z,81.60
2017-10-23T21:48:13.801Z,80.75
2017-10-23T21:50:41.482Z,80.45
2017-10-23T21:53:09.323Z,79.84
2017-10-23T21:55:36.856Z,80.54
2017-10-23T21:58:04.416Z,79.89
2017-10-23T22:00:31.948Z,79.94
2017-10-23T22:02:59.511Z,80.66
2017-10-23T22:05:27.323Z,80.58
2017-10-23T22:07:54.881Z,80.04
2017-10-23T22:10:22.598Z,79.86
2017-10-23T22:12:50.149Z,79.78
2017-10-23T22:15:17.701Z,79.71
2017-10-23T22:17:45.278Z,80.06
2017-10-23T22:20:12.928Z,80.05
2017-10-23T22:22:40.529Z,79.33
2017-10-23T22:25:08.131Z,79.57
2017-10-23T22:27:35.679Z,79.76
2017-10-23T22:30:05.950Z,79.58
2017-10-23T22:32:33.527Z,78.95
2017-10-23T22:35:01.139Z,79.75
2017-10-23T22:37:28.825Z,79.57
2017-10-23T22:39:56.438Z,79.50
2017-10-23T22:42:23.990Z,79.71
2017-10-23T22:44:51.535Z,79.80
2017-10-23T22:47:19.477Z,79.57
2017-10-23T22:49:47.059Z,79.47
2017-10-23T22:52:14.773Z,79.31
2017-10-23T22:54:42.353Z,79.62
2017-10-23T22:57:10.021Z,79.85
2017-10-23T22:59:37.689Z,78.86
2017-10-23T23:02:05.266Z,79.60
2017-10-23T23:04:32.837Z,80.00
2017-10-23T23:07:00.418Z,79.34
2017-10-23T23:09:28.022Z,79.91
2017-10-23T23:11:55.586Z,80.29
2017-10-23T23:14:23.192Z,80.30
2017-10-23T23:16:50.733Z,80.09
2017-10-23T23:19:18.273Z,79.44
2017-10-23T23:21:45.870Z,79.66
2017-10-23T23:24:13.482Z,79.95
2017-10-23T23:26:41.043Z,79.87
2017-10-23T23:29:08.676Z,80.05
2017-10-23T23:31:36.342Z,80.23
2017-10-23T23:34:03.893Z,80.26
2017-10-23T23:36:31.462Z,80.31
2017-10-23T23:38:59.072Z,80.01
2017-10-23T23:41:26.612Z,80.36
2017-10-23T23:43:54.183Z,80.08
2017-10-23T23:46:21.753Z,79.95
2017-10-23T23:48:49.325Z,80.37
2017-10-23T23:51:16.898Z,80.31
2017-10-23T23:53:44.464Z,80.26
2017-10-23T23:56:12.172Z,80.34
2017-10-23T23:58:39.745Z,79.84
